createdAt,value
2023-01-08T00:01:25.320Z,1015.0
2023-01-08T00:16:25.388Z,1015.0
2023-01-08T00:31:25.893Z,1015.0
2023-01-08T00:46:25.089Z,1014.0
2023-01-08T01:01:25.547Z,1014.0
2023-01-08T01:15:42.858Z,1014.0
2023-01-08T01:16:24.980Z,1014.0
2023-01-08T01:31:25.319Z,1014.0
2023-01-08T01:46:26.055Z,1014.0
2023-01-08T01:58:35.092Z,1014.0
2023-01-08T02:10:51.029Z,1014.0
2023-01-08T02:16:25.136Z,1014.0
2023-01-08T02:31:25.060Z,1014.0
2023-01-08T02:46:25.082Z,1013.3
2023-01-08T03:01:25.064Z,1013.0
2023-01-08T03:16:24.889Z,1013.0
2023-01-08T03:31:24.935Z,1013.0
2023-01-08T03:46:25.062Z,1013.0
2023-01-08T04:01:25.135Z,1013.0
2023-01-08T04:16:34.127Z,1013.0
2023-01-08T04:31:34.642Z,1013.0
2023-01-08T04:46:34.176Z,1013.0
2023-01-08T05:01:34.955Z,1013.0
2023-01-08T05:16:24.424Z,1013.0
2023-01-08T05:31:24.386Z,1013.0
2023-01-08T05:46:24.335Z,1013.0
2023-01-08T06:01:24.301Z,1013.0
2023-01-08T06:16:24.530Z,1012.0
2023-01-08T06:31:24.297Z,1012.3
2023-01-08T06:46:24.725Z,1012.7
2023-01-08T07:01:24.969Z,1012.0
2023-01-08T07:16:25.008Z,1012.0
2023-01-08T07:31:24.436Z,1012.0
2023-01-08T07:45:23.974Z,1012.0
2023-01-08T08:00:28.152Z,1012.0
2023-01-08T08:15:25.757Z,1012.0
2023-01-08T08:30:24.366Z,1012.0
2023-01-08T08:45:23.794Z,1012.0
2023-01-08T09:00:35.267Z,1012.0
2023-01-08T09:12:13.353Z,1012.0
2023-01-08T09:15:23.899Z,1012.0
2023-01-08T09:25:15.084Z,1011.0
2023-01-08T09:56:10.631Z,1011.3
2023-01-08T10:10:29.740Z,1011.0
2023-01-08T10:15:24.517Z,1011.0
2023-01-08T10:16:28.274Z,1011.0
2023-01-08T10:29:33.863Z,1011.0
2023-01-08T10:56:49.844Z,1011.0
2023-01-08T11:11:49.139Z,1011.0
2023-01-08T11:30:24.108Z,1011.0
2023-01-08T11:45:24.160Z,1010.7
2023-01-08T12:00:24.415Z,1010.0
2023-01-08T12:15:24.769Z,1010.0
2023-01-08T12:30:33.831Z,1010.0
2023-01-08T12:45:33.449Z,1010.0
2023-01-08T13:00:36.083Z,1010.0
2023-01-08T13:15:23.434Z,1010.0
2023-01-08T13:30:24.002Z,1009.3
2023-01-08T13:45:25.067Z,1009.0
2023-01-08T14:09:46.379Z,1009.0
2023-01-08T14:30:24.390Z,1009.0
2023-01-08T14:45:24.129Z,1009.0
2023-01-08T15:00:30.856Z,1009.0
2023-01-08T15:15:31.030Z,1008.7
2023-01-08T15:46:39.741Z,1008.0
2023-01-08T16:01:24.838Z,1008.0
2023-01-08T16:16:24.624Z,1008.0
2023-01-08T16:31:25.223Z,1007.7
2023-01-08T16:46:24.924Z,1007.0
2023-01-08T17:01:24.889Z,1007.0
2023-01-08T17:16:26.149Z,1007.0
2023-01-08T17:31:24.957Z,1007.0
2023-01-08T17:46:25.140Z,1007.0
2023-01-08T18:01:34.255Z,1005.0
2023-01-08T18:16:24.669Z,1005.0
2023-01-08T18:31:24.394Z,1005.0
2023-01-08T18:46:24.779Z,1005.0
2023-01-08T19:01:24.803Z,1005.0
2023-01-08T19:16:26.301Z,1005.0
2023-01-08T19:31:25.017Z,1004.0
2023-01-08T19:46:24.902Z,1004.0
2023-01-08T20:01:25.100Z,1004.0
2023-01-08T20:16:25.184Z,1004.0
2023-01-08T20:31:25.124Z,1004.0
2023-01-08T20:46:25.173Z,1004.0
2023-01-08T21:01:25.587Z,1003.0
2023-01-08T21:16:25.502Z,1003.0
2023-01-08T21:31:25.340Z,1003.0
2023-01-08T21:46:25.060Z,1003.0
2023-01-08T22:01:26.318Z,1003.0
2023-01-08T22:16:25.717Z,1002.5
2023-01-08T22:31:25.330Z,1002.0
2023-01-08T22:46:34.493Z,1002.0
2023-01-08T23:04:18.554Z,1002.0
2023-01-08T23:16:25.059Z,1002.0
2023-01-08T23:31:25.621Z,1002.0
2023-01-08T23:46:24.557Z,1002.0
